Kaneohe Bay MCAS (Marion E. Carl Field) Airport Kaneohe US
ICAO: PHNG
IATA:
Category: Medium
Scheduled Services:

Elevation: 24 ft
TransAlt. 18000 ft.

Airport Communications:
APP/DEP:125
ATIS:28.45
CLNC DEL:29.47
CTAF:120.7
GND:38.28
PMSV METRO:34.46
PTD:30.72
TWR:120.7

PHNG Zoom In..

If you have problems with the map follow the link
https://www.worldairports.se/pages/airport.php?
ICAO=PHNG

Runways:

(A) RW 04 length 7771 ft width 200 ft
---- / hdg 41

(B) RW 22 length 7771 ft width 200 ft
---- / hdg 221

Location; PHNG
Day. 16 / Time. 03.57 Zulu
* Altimeter: 29.93
* Temperature: 26° c. 78.8°f.
* Wind from: 020° Speed 06 kn.
Dewpoint: 23° c.
Visibility: 10 Statute Miles.
Clouds: Clear (automated report).

PHNG 160357Z 02006KT 10SM CLR 26/23 A2993 RMK AO2 SLP130 T02560228 $


Wind From 020°
Speed 06 kn.

 
 
jpsmedia.com for Web Design worldairports.se 2018   terms of use